This is the latest recevied weather packets stored in our database for station/object F5MAP-5. If no packets are shown the sender has not sent any weather packets the latest 10 day(s).
| Time | Temp. | Humidity | Pressure | Rain* | Wind** | Luminosity | Snow |
|---|---|---|---|---|---|---|---|
| 1787419934 | 20.56° C | 64% | 1020.1 hPa | 0 mm | - | 32 W/m² | - |
| 1787419334 | 20.56° C | 64% | 1020.1 hPa | 0 mm | - | 25 W/m² | - |
| 1787418735 | 20.56° C | 62% | 1020.1 hPa | 0 mm | - | 19 W/m² | - |
| 1787418133 | 20.56° C | 61% | 1020 hPa | 0 mm | - | 21 W/m² | - |
| 1787417534 | 20.56° C | 62% | 1019.9 hPa | 0 mm | - | 40 W/m² | - |
| 1787416934 | 21.11° C | 61% | 1019.9 hPa | 0 mm | - | 33 W/m² | - |
| 1787416333 | 21.11° C | 59% | 1019.9 hPa | 0 mm | - | 23 W/m² | - |
| 1787415733 | 21.11° C | 58% | 1019.9 hPa | 0 mm | - | 28 W/m² | - |
| 1787415133 | 21.11° C | 58% | 1019.9 hPa | 0 mm | - | 33 W/m² | - |
| 1787414533 | 21.11° C | 58% | 1019.9 hPa | 0 mm | - | 32 W/m² | - |
| 1787413933 | 21.11° C | 59% | 1019.9 hPa | 0 mm | - | 42 W/m² | - |
| 1787413333 | 21.11° C | 58% | 1019.9 hPa | 0 mm | - | 62 W/m² | - |
| 1787412733 | 21.11° C | 57% | 1019.8 hPa | 0 mm | - | 51 W/m² | - |
| 1787412133 | 21.11° C | 58% | 1019.8 hPa | 0 mm | - | 70 W/m² | - |
| 1787411533 | 21.11° C | 58% | 1019.8 hPa | 0 mm | - | 47 W/m² | - |
| 1787410933 | 21.11° C | 59% | 1019.9 hPa | 0 mm | - | 70 W/m² | - |
| 1787410333 | 21.11° C | 58% | 1020 hPa | 0 mm | - | 72 W/m² | - |
| 1787409735 | 20.56° C | 58% | 1020 hPa | 0 mm | - | 74 W/m² | - |
| 1787409133 | 20.56° C | 61% | 1020.1 hPa | 0 mm | - | 74 W/m² | - |
| 1787408533 | 20.56° C | 64% | 1020.1 hPa | 0 mm | - | 70 W/m² | - |
| 1787407933 | 20° C | 64% | 1020.1 hPa | 0 mm | - | 63 W/m² | - |
| 1787407333 | 20° C | 65% | 1020.1 hPa | 0 mm | - | 53 W/m² | - |
| 1787406733 | 20° C | 67% | 1020.1 hPa | 0 mm | - | 49 W/m² | - |
| 1787406133 | 19.44° C | 69% | 1020.2 hPa | 0 mm | - | 53 W/m² | - |
| 1787405533 | 19.44° C | 74% | 1020.3 hPa | 0 mm | - | 714 W/m² | - |
* Rain latest hour (hover to see other rain measurements)
** Current wind speed in m/s (hover to see current wind gust speed)